createdAt,value
2018-09-14T00:01:17.783Z,7.40
2018-09-14T00:03:47.016Z,5.93
2018-09-14T00:06:15.767Z,7.30
2018-09-14T00:08:44.363Z,6.73
2018-09-14T00:11:13.941Z,6.20
2018-09-14T00:13:42.519Z,8.90
2018-09-14T00:16:11.168Z,8.83
2018-09-14T00:18:39.843Z,10.10
2018-09-14T00:21:08.376Z,8.50
2018-09-14T00:23:37.736Z,12.10
2018-09-14T00:26:06.682Z,16.80
2018-09-14T00:28:35.336Z,14.03
2018-09-14T00:31:04.442Z,13.67
2018-09-14T00:33:33.457Z,9.77
2018-09-14T00:36:02.097Z,9.50
2018-09-14T00:38:31.157Z,9.73
2018-09-14T00:41:00.608Z,9.27
2018-09-14T00:43:29.333Z,8.57
2018-09-14T00:45:58.304Z,7.03
2018-09-14T00:48:27.299Z,8.90
2018-09-14T00:50:56.401Z,13.90
2018-09-14T00:53:25.047Z,11.47
2018-09-14T00:55:55.968Z,10.13
2018-09-14T00:58:24.614Z,12.63
2018-09-14T01:00:53.181Z,11.90
2018-09-14T01:03:22.915Z,11.67
2018-09-14T01:05:51.648Z,17.13
2018-09-14T01:08:20.289Z,12.67
2018-09-14T01:10:48.899Z,11.50
2018-09-14T01:13:18.136Z,9.90
2018-09-14T01:15:49.532Z,9.13
2018-09-14T01:18:18.574Z,8.90
2018-09-14T01:20:47.404Z,8.70
2018-09-14T01:23:16.365Z,10.43
2018-09-14T01:25:44.935Z,8.73
2018-09-14T01:28:13.498Z,7.97
2018-09-14T01:30:42.456Z,8.43
2018-09-14T01:33:10.999Z,8.57
2018-09-14T01:35:44.683Z,9.47
2018-09-14T01:38:13.208Z,9.87
2018-09-14T01:40:41.748Z,11.07
2018-09-14T01:43:10.270Z,9.47
2018-09-14T01:45:38.809Z,9.27
2018-09-14T01:48:07.321Z,9.87
2018-09-14T01:50:35.877Z,9.13
2018-09-14T01:53:04.424Z,9.80
2018-09-14T01:55:33.141Z,7.47
2018-09-14T01:58:01.758Z,8.77
2018-09-14T02:00:30.253Z,6.97
2018-09-14T02:02:59.039Z,6.37
2018-09-14T02:05:27.540Z,6.40
2018-09-14T02:07:56.185Z,6.23
2018-09-14T02:10:25.351Z,6.93
2018-09-14T02:12:54.421Z,7.43
2018-09-14T02:15:23.099Z,6.07
2018-09-14T02:17:51.768Z,7.70
2018-09-14T02:20:20.706Z,6.67
2018-09-14T02:22:49.785Z,10.67
2018-09-14T02:25:18.321Z,7.40
2018-09-14T02:27:47.005Z,8.43
2018-09-14T02:30:15.555Z,7.07
2018-09-14T02:32:44.055Z,6.80
2018-09-14T02:35:12.554Z,6.33
2018-09-14T02:37:41.261Z,6.03
2018-09-14T02:40:10.393Z,5.90
2018-09-14T02:42:38.926Z,5.97
2018-09-14T02:45:07.679Z,5.53
2018-09-14T02:47:36.371Z,6.57
2018-09-14T02:50:04.899Z,5.50
2018-09-14T02:52:33.397Z,5.00
2018-09-14T02:55:02.341Z,5.10
2018-09-14T02:57:31.304Z,5.63
2018-09-14T02:59:59.954Z,5.53
2018-09-14T03:02:28.501Z,5.33
2018-09-14T03:04:56.996Z,6.97
2018-09-14T03:07:26.402Z,6.63
2018-09-14T03:09:55.279Z,5.43
2018-09-14T03:12:23.879Z,4.20
2018-09-14T03:14:54.804Z,3.40
2018-09-14T03:17:23.347Z,3.50
2018-09-14T03:19:51.956Z,5.20
2018-09-14T03:22:20.507Z,4.10
2018-09-14T03:24:49.065Z,4.90
2018-09-14T03:27:17.576Z,3.47
2018-09-14T03:29:46.076Z,3.83
2018-09-14T03:32:14.639Z,4.03
2018-09-14T03:34:43.222Z,4.03
2018-09-14T03:37:12.203Z,3.37
2018-09-14T03:39:41.273Z,3.97
2018-09-14T03:42:09.817Z,3.73
2018-09-14T03:44:38.782Z,6.70
2018-09-14T03:47:07.325Z,15.47
2018-09-14T03:49:36.115Z,11.00
2018-09-14T03:52:04.603Z,15.53
2018-09-14T03:54:33.404Z,18.43
2018-09-14T03:57:04.609Z,17.57
2018-09-14T03:59:35.110Z,21.43
2018-09-14T04:02:04.304Z,16.87
2018-09-14T04:04:32.847Z,22.00
2018-09-14T04:07:01.344Z,16.17
2018-09-14T04:09:30.202Z,18.50
2018-09-14T04:11:59.330Z,18.70
2018-09-14T04:14:27.828Z,24.67
2018-09-14T04:16:56.377Z,16.30
2018-09-14T04:19:25.104Z,17.00
2018-09-14T04:21:53.676Z,20.10
2018-09-14T04:24:22.467Z,12.83
2018-09-14T04:26:51.125Z,12.00
2018-09-14T04:29:19.644Z,18.30
2018-09-14T04:31:48.167Z,15.57
2018-09-14T04:34:17.212Z,15.87
2018-09-14T04:36:45.721Z,13.33
2018-09-14T04:39:15.143Z,12.07
2018-09-14T04:41:44.052Z,12.83
2018-09-14T04:44:12.586Z,11.23
2018-09-14T04:46:41.291Z,12.33
2018-09-14T04:49:10.518Z,11.13
2018-09-14T04:51:40.603Z,10.67
2018-09-14T04:54:09.945Z,12.03
2018-09-14T04:56:38.464Z,16.57
2018-09-14T04:59:07.653Z,13.57
2018-09-14T05:01:36.629Z,13.73
2018-09-14T05:04:05.276Z,13.70
2018-09-14T05:06:33.767Z,11.70
2018-09-14T05:09:02.563Z,13.30
2018-09-14T05:11:31.065Z,17.90
2018-09-14T05:13:59.946Z,29.63
2018-09-14T05:16:28.593Z,20.40
2018-09-14T05:18:57.208Z,18.23
2018-09-14T05:21:25.831Z,21.97
2018-09-14T05:23:54.934Z,18.23
2018-09-14T05:26:23.351Z,17.87
2018-09-14T05:28:51.867Z,22.70
2018-09-14T05:31:20.847Z,18.40
2018-09-14T05:33:49.629Z,21.53
2018-09-14T05:36:18.155Z,23.17
2018-09-14T05:38:46.681Z,19.50
2018-09-14T05:41:15.273Z,14.33
2018-09-14T05:43:43.757Z,17.03
2018-09-14T05:46:12.468Z,15.30
2018-09-14T05:48:41.003Z,14.37
2018-09-14T05:51:09.608Z,17.57
2018-09-14T05:53:38.100Z,21.77
2018-09-14T05:56:07.183Z,20.90
2018-09-14T05:58:35.785Z,26.30
2018-09-14T06:01:05.123Z,24.73
2018-09-14T06:03:33.655Z,26.50
2018-09-14T06:06:02.190Z,29.63
2018-09-14T06:08:30.723Z,27.23
2018-09-14T06:10:59.316Z,24.53
2018-09-14T06:13:27.895Z,25.13
2018-09-14T06:15:56.387Z,27.27
2018-09-14T06:18:25.009Z,25.30
2018-09-14T06:20:53.569Z,25.87
2018-09-14T06:23:22.346Z,25.17
2018-09-14T06:25:51.023Z,26.17
2018-09-14T06:28:19.863Z,26.47
2018-09-14T06:30:49.127Z,26.60
2018-09-14T06:33:17.690Z,29.10
2018-09-14T06:35:46.909Z,27.03
2018-09-14T06:38:15.723Z,27.17
2018-09-14T06:40:44.457Z,24.97
2018-09-14T06:43:13.074Z,25.40
2018-09-14T06:45:41.745Z,27.00
2018-09-14T06:48:10.255Z,25.47
2018-09-14T06:50:38.827Z,35.90
2018-09-14T06:53:07.407Z,31.37
2018-09-14T06:55:37.283Z,29.40
2018-09-14T06:58:05.862Z,27.50
2018-09-14T07:00:34.446Z,30.97
2018-09-14T07:03:02.954Z,26.43
2018-09-14T07:05:31.631Z,25.40
2018-09-14T07:08:00.339Z,25.10
2018-09-14T07:10:28.892Z,28.47
2018-09-14T07:12:57.449Z,26.57
2018-09-14T07:15:26.749Z,29.40
2018-09-14T07:17:56.019Z,30.63
2018-09-14T07:20:24.529Z,22.83
2018-09-14T07:22:53.100Z,24.20
2018-09-14T07:25:21.662Z,28.63
2018-09-14T07:27:50.218Z,23.37
2018-09-14T07:30:18.825Z,26.10
2018-09-14T07:32:48.529Z,28.07
2018-09-14T07:35:17.053Z,26.60
2018-09-14T07:37:45.557Z,23.73
2018-09-14T07:40:14.639Z,24.43
2018-09-14T07:42:43.182Z,23.03
2018-09-14T07:45:11.675Z,21.77
2018-09-14T07:47:40.185Z,27.23
2018-09-14T07:50:08.716Z,24.00
2018-09-14T07:52:37.272Z,23.90
2018-09-14T07:55:06.126Z,27.37
2018-09-14T07:57:34.839Z,25.10
2018-09-14T08:00:03.348Z,21.77
2018-09-14T08:02:31.884Z,24.40
2018-09-14T08:05:00.594Z,23.40
2018-09-14T08:07:29.088Z,23.10
2018-09-14T08:09:57.629Z,26.63
2018-09-14T08:12:26.476Z,25.40
2018-09-14T08:14:55.154Z,24.30
2018-09-14T08:17:23.649Z,22.97
2018-09-14T08:19:52.169Z,20.10
2018-09-14T08:22:20.928Z,23.20
2018-09-14T08:24:49.645Z,25.30
2018-09-14T08:27:18.929Z,23.07
2018-09-14T08:29:47.642Z,30.63
2018-09-14T08:32:16.233Z,24.57
2018-09-14T08:34:44.735Z,18.83
2018-09-14T08:37:13.661Z,19.50
2018-09-14T08:39:42.460Z,23.83
2018-09-14T08:42:11.345Z,24.40
2018-09-14T08:44:40.182Z,21.13
2018-09-14T08:47:09.214Z,24.57
2018-09-14T08:49:37.895Z,15.93
2018-09-14T08:52:06.849Z,17.80
2018-09-14T08:54:36.682Z,18.23
2018-09-14T08:57:05.485Z,17.30
2018-09-14T08:59:34.057Z,18.50
2018-09-14T09:02:02.583Z,14.30
2018-09-14T09:04:31.081Z,14.87
2018-09-14T09:06:59.625Z,12.50
2018-09-14T09:09:28.601Z,12.03
2018-09-14T09:11:57.182Z,15.73
2018-09-14T09:14:25.689Z,11.43
2018-09-14T09:16:54.273Z,10.83
2018-09-14T09:19:22.941Z,10.87
2018-09-14T09:21:51.502Z,12.23
2018-09-14T09:24:19.989Z,12.37
2018-09-14T09:26:48.728Z,8.80
2018-09-14T09:29:17.329Z,10.20
2018-09-14T09:31:46.322Z,11.27
2018-09-14T09:34:15.432Z,9.60
2018-09-14T09:36:44.231Z,12.67
2018-09-14T09:39:13.786Z,8.97
2018-09-14T09:41:43.083Z,10.83
2018-09-14T09:44:11.723Z,8.73
2018-09-14T09:46:40.215Z,10.40
2018-09-14T09:49:09.123Z,10.53
2018-09-14T09:51:37.673Z,11.30
2018-09-14T09:54:06.308Z,11.87
2018-09-14T09:56:35.007Z,9.67
2018-09-14T09:59:03.699Z,8.67
2018-09-14T10:01:35.085Z,9.43
2018-09-14T10:04:09.325Z,7.50
2018-09-14T10:06:37.806Z,8.07
2018-09-14T10:09:08.600Z,12.53
2018-09-14T10:11:37.117Z,9.53
2018-09-14T10:14:06.133Z,7.77
2018-09-14T10:16:34.623Z,8.97
2018-09-14T10:19:03.137Z,10.67
2018-09-14T10:21:31.718Z,6.97
2018-09-14T10:24:00.303Z,7.00
2018-09-14T10:26:28.977Z,7.83
2018-09-14T10:28:57.546Z,9.60
2018-09-14T10:31:32.212Z,5.77
2018-09-14T10:34:00.907Z,5.43
2018-09-14T10:36:29.388Z,6.33
2018-09-14T10:38:58.188Z,7.43
2018-09-14T10:41:27.050Z,7.30
2018-09-14T10:43:56.029Z,6.60
2018-09-14T10:46:24.586Z,6.43
2018-09-14T10:48:53.486Z,7.20
2018-09-14T10:51:22.261Z,8.23
2018-09-14T10:53:50.851Z,9.67
2018-09-14T10:56:19.445Z,6.60
2018-09-14T10:58:47.974Z,5.17
2018-09-14T11:01:17.111Z,4.60
2018-09-14T11:03:45.748Z,5.80
2018-09-14T11:06:14.984Z,4.13
2018-09-14T11:08:43.717Z,4.63
2018-09-14T11:11:12.245Z,7.37
2018-09-14T11:13:40.845Z,3.97
2018-09-14T11:16:09.385Z,3.67
2018-09-14T11:18:37.907Z,5.50
2018-09-14T11:21:06.666Z,4.13
2018-09-14T11:23:35.289Z,6.53
2018-09-14T11:26:03.849Z,4.60
2018-09-14T11:28:32.363Z,5.30
2018-09-14T11:31:00.837Z,5.83
2018-09-14T11:33:29.410Z,6.57
2018-09-14T11:35:58.158Z,4.20
2018-09-14T11:38:26.828Z,8.80
2018-09-14T11:40:55.394Z,4.47
2018-09-14T11:43:24.014Z,6.10
2018-09-14T11:45:52.604Z,8.77
2018-09-14T11:48:21.428Z,4.90
2018-09-14T11:50:49.920Z,7.57
2018-09-14T11:53:18.796Z,8.17
2018-09-14T11:55:47.565Z,6.80
2018-09-14T11:58:16.140Z,6.40
2018-09-14T12:00:45.198Z,6.77
2018-09-14T12:03:13.690Z,9.13
2018-09-14T12:05:42.218Z,8.27
2018-09-14T12:08:10.735Z,8.33
2018-09-14T12:10:39.258Z,8.63
2018-09-14T12:13:07.838Z,6.07
2018-09-14T12:15:36.371Z,4.13
2018-09-14T12:18:05.151Z,4.80
2018-09-14T12:20:33.774Z,7.20
2018-09-14T12:23:02.259Z,4.60
2018-09-14T12:25:30.813Z,4.20
2018-09-14T12:27:59.320Z,5.33
2018-09-14T12:30:28.037Z,5.00
2018-09-14T12:32:56.650Z,5.00
2018-09-14T12:35:25.363Z,5.60
2018-09-14T12:37:53.865Z,3.23
2018-09-14T12:40:22.425Z,6.83
2018-09-14T12:42:51.359Z,6.50
2018-09-14T12:45:19.865Z,3.27
2018-09-14T12:47:48.338Z,6.10
2018-09-14T12:50:16.809Z,6.03
2018-09-14T12:52:45.293Z,4.37
2018-09-14T12:55:14.012Z,2.17
2018-09-14T12:57:42.582Z,5.27
2018-09-14T13:00:11.170Z,6.10
2018-09-14T13:02:39.966Z,4.63
2018-09-14T13:05:08.844Z,4.47
2018-09-14T13:07:37.840Z,4.43
2018-09-14T13:10:07.022Z,4.67
2018-09-14T13:12:35.941Z,3.20
2018-09-14T13:15:04.677Z,3.20
2018-09-14T13:17:33.172Z,4.60
2018-09-14T13:20:02.019Z,3.50
2018-09-14T13:22:31.024Z,4.27
2018-09-14T13:24:59.536Z,4.13
2018-09-14T13:27:28.008Z,5.60
2018-09-14T13:29:56.712Z,4.70
2018-09-14T13:32:25.220Z,4.57
2018-09-14T13:34:53.750Z,6.33
2018-09-14T13:37:23.000Z,5.03
2018-09-14T13:39:51.794Z,5.73
2018-09-14T13:42:20.357Z,5.30
2018-09-14T13:44:49.205Z,3.43
2018-09-14T13:47:17.666Z,8.40
2018-09-14T13:49:46.826Z,5.30
2018-09-14T13:52:15.860Z,2.90
2018-09-14T13:54:44.398Z,4.93
2018-09-14T13:57:13.254Z,4.93
2018-09-14T13:59:41.781Z,4.13
2018-09-14T14:02:10.297Z,3.50
2018-09-14T14:04:44.382Z,5.13
2018-09-14T14:07:13.256Z,4.43
2018-09-14T14:09:41.938Z,5.97
2018-09-14T14:12:10.904Z,3.10
2018-09-14T14:14:39.768Z,3.80
2018-09-14T14:17:08.793Z,3.00
2018-09-14T14:19:37.329Z,5.03
2018-09-14T14:22:06.544Z,3.00
2018-09-14T14:26:04.605Z,6.77
2018-09-14T14:28:33.789Z,4.87
2018-09-14T14:31:02.607Z,5.13
2018-09-14T14:33:32.712Z,5.13
2018-09-14T14:36:01.790Z,7.87
2018-09-14T14:38:30.541Z,6.07
2018-09-14T14:40:59.067Z,3.80
2018-09-14T14:43:30.018Z,4.13
2018-09-14T14:45:58.499Z,5.97
2018-09-14T14:48:26.993Z,3.70
2018-09-14T14:50:56.292Z,3.57
2018-09-14T14:53:24.851Z,3.30
2018-09-14T14:55:53.371Z,2.93
2018-09-14T14:58:21.944Z,3.13
2018-09-14T15:00:50.440Z,4.20
2018-09-14T15:03:40.518Z,4.00
2018-09-14T15:06:09.046Z,5.07
2018-09-14T15:11:24.678Z,3.50
2018-09-14T15:13:53.422Z,3.43
2018-09-14T15:16:21.948Z,3.50
2018-09-14T15:18:50.616Z,4.47
2018-09-14T15:21:19.191Z,2.37
2018-09-14T15:23:47.782Z,4.27
2018-09-14T15:26:16.558Z,3.50
2018-09-14T15:46:02.365Z,1.53
2018-09-14T15:48:30.973Z,2.33
2018-09-14T15:51:03.257Z,2.10
2018-09-14T15:53:32.888Z,8.47
2018-09-14T15:56:01.467Z,4.27
2018-09-14T15:58:30.757Z,2.53
2018-09-14T16:00:59.413Z,3.67
2018-09-14T16:03:29.783Z,2.57
2018-09-14T16:06:35.755Z,3.93
2018-09-14T16:09:06.065Z,3.27
2018-09-14T16:11:34.551Z,4.70
2018-09-14T16:14:03.093Z,4.50
2018-09-14T16:16:32.190Z,4.77
2018-09-14T16:19:00.774Z,5.03
2018-09-14T16:21:42.163Z,3.63
2018-09-14T16:24:10.861Z,4.40
2018-09-14T16:26:42.730Z,3.73
2018-09-14T16:29:11.321Z,6.97
2018-09-14T16:31:40.132Z,5.87
2018-09-14T16:34:08.902Z,4.57
2018-09-14T16:36:37.665Z,2.83
2018-09-14T16:39:09.133Z,3.63
2018-09-14T16:41:38.280Z,5.03
2018-09-14T16:44:07.076Z,4.63
2018-09-14T16:46:35.751Z,4.50
2018-09-14T16:49:04.447Z,4.57
2018-09-14T16:51:32.958Z,3.00
2018-09-14T16:54:01.495Z,2.87
2018-09-14T16:56:30.042Z,4.77
2018-09-14T16:58:59.098Z,5.03
2018-09-14T17:01:27.660Z,4.27
2018-09-14T17:03:56.324Z,3.53
2018-09-14T17:07:54.498Z,2.80
2018-09-14T17:10:23.610Z,2.43
2018-09-14T17:12:52.113Z,1.40
2018-09-14T17:15:20.792Z,4.70
2018-09-14T17:17:49.526Z,2.70
2018-09-14T17:20:18.405Z,2.93
2018-09-14T17:22:46.938Z,1.47
2018-09-14T17:25:15.479Z,5.00
2018-09-14T17:27:44.649Z,2.90
2018-09-14T17:30:13.175Z,3.77
2018-09-14T17:32:46.884Z,3.67
2018-09-14T17:35:15.861Z,5.47
2018-09-14T17:37:45.062Z,3.87
2018-09-14T17:40:14.775Z,4.53
2018-09-14T17:42:45.551Z,3.27
2018-09-14T17:45:14.526Z,3.47
2018-09-14T17:47:44.256Z,2.67
2018-09-14T17:50:14.437Z,2.13
2018-09-14T17:52:46.279Z,2.00
2018-09-14T17:55:14.759Z,2.57
2018-09-14T17:57:44.407Z,3.50
2018-09-14T18:00:14.136Z,3.77
2018-09-14T18:02:55.827Z,3.50
2018-09-14T18:08:09.387Z,4.10
2018-09-14T18:10:54.380Z,4.67
2018-09-14T18:13:23.058Z,9.40
2018-09-14T18:15:52.258Z,8.50
2018-09-14T18:18:24.204Z,8.70
2018-09-14T18:20:53.441Z,10.60
2018-09-14T18:23:23.620Z,8.87
2018-09-14T18:25:52.935Z,4.27
2018-09-14T18:28:21.738Z,6.40
2018-09-14T18:30:50.494Z,6.03
2018-09-14T18:33:19.720Z,4.37
2018-09-14T18:35:50.565Z,2.67
2018-09-14T18:38:19.866Z,3.73
2018-09-14T18:40:48.849Z,3.93
2018-09-14T18:43:17.532Z,2.13
2018-09-14T18:45:46.309Z,2.70
2018-09-14T18:48:15.413Z,4.93
2018-09-14T18:50:44.427Z,5.83
2018-09-14T18:53:13.005Z,2.43
2018-09-14T18:55:42.555Z,2.33
2018-09-14T18:58:15.904Z,3.40
2018-09-14T19:00:44.580Z,2.30
2018-09-14T19:03:13.125Z,3.87
2018-09-14T19:05:42.485Z,4.87
2018-09-14T19:08:11.677Z,6.07
2018-09-14T19:10:40.655Z,8.90
2018-09-14T19:13:09.509Z,7.70
2018-09-14T19:15:38.021Z,14.63
2018-09-14T19:18:07.672Z,14.13
2018-09-14T19:20:36.758Z,12.90
2018-09-14T19:23:05.292Z,13.47
2018-09-14T19:25:34.547Z,14.33
2018-09-14T19:28:03.185Z,13.07
2018-09-14T19:30:31.747Z,14.27
2018-09-14T19:33:00.817Z,13.00
2018-09-14T19:35:29.512Z,16.23
2018-09-14T19:37:58.391Z,15.73
2018-09-14T19:40:27.817Z,15.40
2018-09-14T19:42:57.244Z,12.23
2018-09-14T19:45:25.957Z,15.37
2018-09-14T19:47:54.607Z,11.17
2018-09-14T19:51:52.706Z,7.70
2018-09-14T19:54:21.269Z,4.57
2018-09-14T19:56:49.781Z,3.07
2018-09-14T19:59:18.946Z,6.23
2018-09-14T20:01:47.502Z,2.80
2018-09-14T20:04:16.191Z,2.90
2018-09-14T20:06:45.534Z,3.13
2018-09-14T20:09:15.458Z,4.03
2018-09-14T20:11:45.462Z,3.03
2018-09-14T20:14:13.901Z,4.23
2018-09-14T20:16:44.255Z,5.07
2018-09-14T20:19:14.202Z,3.23
2018-09-14T20:21:43.114Z,4.63
2018-09-14T20:24:11.656Z,3.43
2018-09-14T20:26:40.589Z,3.57
2018-09-14T20:29:09.251Z,3.77
2018-09-14T20:31:38.044Z,5.27
2018-09-14T20:34:07.263Z,4.03
2018-09-14T20:39:29.458Z,2.67
2018-09-14T20:41:58.073Z,3.63
2018-09-14T20:44:26.672Z,2.70
2018-09-14T20:46:55.259Z,3.77
2018-09-14T20:49:24.083Z,3.70
2018-09-14T20:51:52.686Z,3.50
2018-09-14T20:54:21.551Z,4.30
2018-09-14T20:56:50.063Z,3.97
2018-09-14T20:59:18.608Z,6.13
2018-09-14T21:01:48.584Z,4.43
2018-09-14T21:04:17.348Z,4.13
2018-09-14T21:06:46.834Z,3.37
2018-09-14T21:09:15.345Z,3.77
2018-09-14T21:13:13.761Z,5.63
2018-09-14T21:15:42.394Z,5.40
2018-09-14T21:18:10.949Z,8.70
2018-09-14T21:20:39.713Z,9.17
2018-09-14T21:23:09.353Z,11.07
2018-09-14T21:25:38.054Z,6.20
2018-09-14T21:28:08.113Z,5.07
2018-09-14T21:30:36.667Z,6.67
2018-09-14T21:33:05.459Z,5.40
2018-09-14T21:35:33.981Z,4.03
2018-09-14T21:38:06.910Z,4.63
2018-09-14T21:40:36.619Z,6.83
2018-09-14T21:43:05.892Z,7.07
2018-09-14T21:45:34.419Z,9.97
2018-09-14T21:48:03.082Z,8.37
2018-09-14T21:50:31.898Z,8.80
2018-09-14T21:53:00.633Z,8.50
2018-09-14T21:55:29.189Z,7.40
2018-09-14T21:57:57.854Z,10.43
2018-09-14T22:00:32.180Z,8.93
2018-09-14T22:03:00.756Z,8.77
2018-09-14T22:05:29.284Z,7.20
2018-09-14T22:07:57.988Z,9.57
2018-09-14T22:10:26.510Z,16.67
2018-09-14T22:12:55.021Z,6.20
2018-09-14T22:15:23.507Z,5.00
2018-09-14T22:17:52.034Z,5.03
2018-09-14T22:20:20.634Z,8.73
2018-09-14T22:22:49.168Z,5.63
2018-09-14T22:25:17.987Z,4.97
2018-09-14T22:27:46.553Z,8.27
2018-09-14T22:30:15.006Z,3.53
2018-09-14T22:32:43.552Z,4.03
2018-09-14T22:35:12.142Z,4.90
2018-09-14T22:37:40.714Z,5.03
2018-09-14T22:40:09.959Z,6.30
2018-09-14T22:42:39.001Z,6.77
2018-09-14T22:45:07.619Z,7.37
2018-09-14T22:47:36.217Z,6.70
2018-09-14T22:50:04.732Z,5.57
2018-09-14T22:52:33.296Z,7.00
2018-09-14T22:55:01.834Z,4.23
2018-09-14T22:57:30.447Z,7.40
2018-09-14T22:59:59.056Z,9.40
2018-09-14T23:02:27.589Z,6.73
2018-09-14T23:04:56.122Z,4.73
2018-09-14T23:07:24.897Z,6.13
2018-09-14T23:09:53.627Z,7.10
2018-09-14T23:12:22.148Z,6.20
2018-09-14T23:14:50.644Z,6.57
2018-09-14T23:17:19.185Z,6.43
2018-09-14T23:19:47.766Z,4.07
2018-09-14T23:22:16.248Z,7.33
2018-09-14T23:24:44.755Z,6.37
2018-09-14T23:27:13.264Z,6.47
2018-09-14T23:47:00.074Z,6.03
2018-09-14T23:49:29.284Z,6.60
2018-09-14T23:51:57.790Z,5.53
2018-09-14T23:54:26.414Z,5.40
2018-09-14T23:56:54.990Z,6.97
2018-09-14T23:59:23.587Z,7.23
